createdAt,value
2023-05-22T00:01:32.114Z,97054.97
2023-05-22T00:03:59.802Z,97050.88
2023-05-22T00:06:28.794Z,97054.25
2023-05-22T00:08:57.233Z,97049.75
2023-05-22T00:11:24.954Z,97050.31
2023-05-22T00:13:52.830Z,97056.28
2023-05-22T00:16:21.179Z,97063.59
2023-05-22T00:18:48.878Z,97059.25
2023-05-22T00:21:16.591Z,97062.16
2023-05-22T00:23:46.061Z,97065.63
2023-05-22T00:26:15.779Z,97059.06
2023-05-22T00:28:43.457Z,97065.09
2023-05-22T00:31:11.311Z,97067.22
2023-05-22T00:33:38.962Z,97064.16
2023-05-22T00:36:10.411Z,97063.69
2023-05-22T00:38:38.083Z,97065.63
2023-05-22T00:41:07.401Z,97063.34
2023-05-22T00:43:41.445Z,97058.13
2023-05-22T00:46:09.162Z,97070.22
2023-05-22T00:48:37.676Z,97071.72
2023-05-22T00:51:07.565Z,97057.91
2023-05-22T00:53:35.973Z,97062.56
2023-05-22T00:56:05.435Z,97066.34
2023-05-22T00:58:34.425Z,97070.06
2023-05-22T01:01:02.042Z,97061.75
2023-05-22T01:03:29.807Z,97059.06
2023-05-22T01:05:57.548Z,97063.75
2023-05-22T01:08:25.434Z,97063.84
2023-05-22T01:11:02.429Z,97057.28
2023-05-22T01:13:42.839Z,97051.28
2023-05-22T01:16:20.597Z,97057.44
2023-05-22T01:18:59.844Z,97060.88
2023-05-22T01:21:36.984Z,97073.22
2023-05-22T01:24:39.026Z,97060.97
2023-05-22T01:27:42.850Z,97056.44
2023-05-22T01:30:26.755Z,97067.59
2023-05-22T01:32:58.970Z,97071.09
2023-05-22T01:35:29.042Z,97070.94
2023-05-22T01:37:58.640Z,97078.31
2023-05-22T01:40:28.295Z,97085.22
2023-05-22T01:42:56.218Z,97083.38
2023-05-22T01:45:24.186Z,97086.44
2023-05-22T01:47:53.185Z,97088.69
2023-05-22T01:50:23.368Z,97087.97
2023-05-22T01:52:59.328Z,97080.44
2023-05-22T01:55:34.119Z,97077.25
2023-05-22T01:58:12.577Z,97085.59
2023-05-22T02:00:45.686Z,97071.84
2023-05-22T02:03:19.282Z,97074.13
2023-05-22T02:05:54.092Z,97076.28
2023-05-22T02:08:22.804Z,97071.13
2023-05-22T02:10:54.730Z,97067.03
2023-05-22T02:13:25.908Z,97062.66
2023-05-22T02:15:55.589Z,97062.25
2023-05-22T02:18:26.549Z,97064.97
2023-05-22T02:20:55.638Z,97054.25
2023-05-22T02:23:24.845Z,97063.31
2023-05-22T02:25:52.477Z,97059.56
2023-05-22T02:28:20.088Z,97061.09
2023-05-22T02:30:48.103Z,97066.41
2023-05-22T02:33:15.785Z,97066.00
2023-05-22T02:35:43.957Z,97053.38
2023-05-22T02:38:13.363Z,97064.00
2023-05-22T02:40:42.219Z,97060.94
2023-05-22T02:43:10.034Z,97060.13
2023-05-22T02:45:37.617Z,97064.22
2023-05-22T02:48:06.146Z,97060.13
2023-05-22T02:50:34.036Z,97063.50
2023-05-22T02:53:02.176Z,97063.34
2023-05-22T02:55:31.272Z,97064.28
2023-05-22T02:57:58.971Z,97065.00
2023-05-22T03:00:26.802Z,97063.66
2023-05-22T03:02:54.565Z,97058.44
2023-05-22T03:05:22.380Z,97055.94
2023-05-22T03:07:49.990Z,97054.66
2023-05-22T03:10:17.644Z,97052.50
2023-05-22T03:12:46.742Z,97058.25
2023-05-22T03:15:14.412Z,97056.94
2023-05-22T03:17:42.262Z,97056.75
2023-05-22T03:20:10.780Z,97058.13
2023-05-22T03:22:38.491Z,97064.44
2023-05-22T03:25:07.814Z,97057.63
2023-05-22T03:27:35.790Z,97065.25
2023-05-22T03:30:06.684Z,97073.31
2023-05-22T03:32:34.459Z,97075.41
2023-05-22T03:35:02.127Z,97081.78
2023-05-22T03:37:30.078Z,97095.00
2023-05-22T03:39:57.717Z,97092.72
2023-05-22T03:42:27.026Z,97088.66
2023-05-22T03:44:54.618Z,97088.44
2023-05-22T03:47:23.845Z,97096.06
2023-05-22T03:49:52.040Z,97095.19
2023-05-22T03:52:19.699Z,97097.03
2023-05-22T03:54:47.435Z,97090.38
2023-05-22T03:57:15.093Z,97093.16
2023-05-22T03:59:42.824Z,97092.84
2023-05-22T04:02:10.741Z,97082.16
2023-05-22T04:04:39.988Z,97089.78
2023-05-22T04:07:07.764Z,97094.22
2023-05-22T04:09:35.903Z,97090.03
2023-05-22T04:12:04.019Z,97095.44
2023-05-22T04:14:31.778Z,97087.09
2023-05-22T04:17:00.938Z,97085.16
2023-05-22T04:19:28.615Z,97088.50
2023-05-22T04:21:58.394Z,97085.84
2023-05-22T04:24:27.695Z,97104.53
2023-05-22T04:26:55.568Z,97095.59
2023-05-22T04:29:23.789Z,97092.31
2023-05-22T04:31:51.398Z,97102.44
2023-05-22T04:34:19.293Z,97092.00
2023-05-22T04:36:47.001Z,97087.16
2023-05-22T04:39:18.873Z,97080.75
2023-05-22T04:41:46.492Z,97087.22
2023-05-22T04:44:14.264Z,97093.94
2023-05-22T04:46:44.314Z,97088.19
2023-05-22T04:49:12.065Z,97084.59
2023-05-22T04:51:39.816Z,97091.38
2023-05-22T04:54:07.734Z,97090.97
2023-05-22T04:56:37.334Z,97087.53
2023-05-22T04:59:05.731Z,97094.84
2023-05-22T05:01:34.740Z,97105.72
2023-05-22T05:04:02.625Z,97103.06
2023-05-22T05:06:30.398Z,97107.00
2023-05-22T05:08:58.060Z,97112.00
2023-05-22T05:11:25.684Z,97116.91
2023-05-22T05:13:54.782Z,97124.00
2023-05-22T05:16:22.812Z,97130.69
2023-05-22T05:18:51.003Z,97139.34
2023-05-22T05:21:19.306Z,97134.78
2023-05-22T05:23:47.191Z,97136.03
2023-05-22T05:26:15.073Z,97121.56
2023-05-22T05:28:42.989Z,97114.09
2023-05-22T05:31:12.053Z,97107.91
2023-05-22T05:33:39.805Z,97112.38
2023-05-22T05:36:08.216Z,97104.66
2023-05-22T05:38:36.930Z,97101.00
2023-05-22T05:41:06.286Z,97095.41
2023-05-22T05:43:33.998Z,97103.16
2023-05-22T05:46:03.248Z,97099.03
2023-05-22T05:48:35.671Z,97095.50
2023-05-22T05:51:03.654Z,97100.38
2023-05-22T05:53:31.666Z,97105.53
2023-05-22T05:55:59.542Z,97115.88
2023-05-22T05:58:27.223Z,97110.53
2023-05-22T06:00:55.261Z,97116.13
2023-05-22T06:03:22.937Z,97118.81
2023-05-22T06:05:52.118Z,97127.03
2023-05-22T06:08:19.948Z,97119.19
2023-05-22T06:10:48.006Z,97118.03
2023-05-22T06:13:15.956Z,97118.44
2023-05-22T06:15:43.937Z,97116.63
2023-05-22T06:18:11.898Z,97119.97
2023-05-22T06:20:39.917Z,97111.50
2023-05-22T06:23:09.306Z,97111.38
2023-05-22T06:25:37.156Z,97114.28
2023-05-22T06:28:05.275Z,97120.66
2023-05-22T06:33:06.788Z,97111.31
2023-05-22T06:35:34.516Z,97116.16
2023-05-22T06:38:02.322Z,97114.25
2023-05-22T06:40:31.343Z,97107.75
2023-05-22T06:42:59.021Z,97106.34
2023-05-22T06:45:26.962Z,97104.91
2023-05-22T06:47:55.604Z,97113.63
2023-05-22T06:50:23.324Z,97111.66
2023-05-22T06:52:51.521Z,97101.56
2023-05-22T06:55:19.567Z,97105.84
2023-05-22T06:57:55.784Z,97112.00
2023-05-22T07:00:26.582Z,97105.03
2023-05-22T07:02:54.614Z,97112.66
2023-05-22T07:05:26.763Z,97112.34
2023-05-22T07:07:57.877Z,97111.13
2023-05-22T07:10:25.715Z,97123.00
2023-05-22T07:12:56.337Z,97119.34
2023-05-22T07:15:25.991Z,97124.88
2023-05-22T07:17:54.180Z,97125.00
2023-05-22T07:20:23.123Z,97128.66
2023-05-22T07:22:50.784Z,97131.50
2023-05-22T07:25:18.661Z,97134.13
2023-05-22T07:27:46.263Z,97124.59
2023-05-22T07:30:15.596Z,97129.22
2023-05-22T07:32:43.520Z,97130.31
2023-05-22T07:35:11.578Z,97127.34
2023-05-22T07:37:39.350Z,97134.63
2023-05-22T07:40:08.204Z,97127.66
2023-05-22T07:42:35.880Z,97128.19
2023-05-22T07:45:04.152Z,97131.25
2023-05-22T07:47:33.355Z,97131.13
2023-05-22T07:50:01.148Z,97129.72
2023-05-22T07:52:28.954Z,97120.69
2023-05-22T07:54:56.727Z,97121.63
2023-05-22T07:57:24.825Z,97118.56
2023-05-22T07:59:52.461Z,97114.63
2023-05-22T08:02:20.144Z,97110.41
2023-05-22T08:04:49.470Z,97115.09
2023-05-22T08:07:17.187Z,97110.88
2023-05-22T08:09:44.900Z,97117.63
2023-05-22T08:12:12.570Z,97111.34
2023-05-22T08:14:42.410Z,97118.34
2023-05-22T08:17:10.069Z,97110.53
2023-05-22T08:19:37.923Z,97109.88
2023-05-22T08:22:07.251Z,97109.91
2023-05-22T08:24:35.113Z,97106.78
2023-05-22T08:27:02.774Z,97105.59
2023-05-22T08:29:30.638Z,97101.06
2023-05-22T08:31:58.384Z,97099.06
2023-05-22T08:34:26.276Z,97090.56
2023-05-22T08:36:54.033Z,97095.25
2023-05-22T08:39:23.291Z,97092.78
2023-05-22T08:41:51.215Z,97101.03
2023-05-22T08:44:18.930Z,97099.06
2023-05-22T08:46:47.777Z,97099.09
2023-05-22T08:49:17.553Z,97103.03
2023-05-22T08:51:52.621Z,97096.09
2023-05-22T08:54:24.687Z,97089.44
2023-05-22T08:56:57.205Z,97087.56
2023-05-22T08:59:25.795Z,97089.63
2023-05-22T09:01:54.652Z,97090.25
2023-05-22T09:04:24.398Z,97086.41
2023-05-22T09:06:53.120Z,97089.53
2023-05-22T09:09:20.907Z,97091.22
2023-05-22T09:11:55.406Z,97088.94
2023-05-22T09:14:25.353Z,97085.25
2023-05-22T09:16:53.164Z,97081.03
2023-05-22T09:19:20.974Z,97082.75
2023-05-22T09:21:48.720Z,97080.69
2023-05-22T09:24:16.299Z,97086.13
2023-05-22T09:26:43.991Z,97074.91
2023-05-22T09:29:13.309Z,97075.09
2023-05-22T09:31:42.968Z,97071.53
2023-05-22T09:34:11.794Z,97072.31
2023-05-22T09:36:39.938Z,97067.72
2023-05-22T09:39:07.845Z,97078.38
2023-05-22T09:41:37.588Z,97061.59
2023-05-22T09:44:17.348Z,97068.13
2023-05-22T09:46:46.751Z,97074.38
2023-05-22T09:49:16.400Z,97075.28
2023-05-22T09:51:46.087Z,97069.78
2023-05-22T09:54:15.947Z,97068.28
2023-05-22T09:56:49.973Z,97068.47
2023-05-22T09:59:21.779Z,97057.78
2023-05-22T10:01:50.502Z,97062.56
2023-05-22T10:04:19.142Z,97058.56
2023-05-22T10:06:51.908Z,97063.25
2023-05-22T10:09:24.700Z,97060.41
2023-05-22T10:11:57.276Z,97064.28
2023-05-22T10:14:28.789Z,97058.81
2023-05-22T10:16:58.224Z,97048.59
2023-05-22T10:19:29.285Z,97043.28
2023-05-22T10:22:00.643Z,97040.63
2023-05-22T10:24:29.422Z,97044.63
2023-05-22T10:26:57.906Z,97042.47
2023-05-22T10:29:36.120Z,97035.66
2023-05-22T10:32:13.080Z,97032.31
2023-05-22T10:34:52.232Z,97030.84
2023-05-22T10:37:42.516Z,97031.41
2023-05-22T10:40:15.033Z,97043.69
2023-05-22T10:42:44.024Z,97038.78
2023-05-22T10:45:13.678Z,97042.94
2023-05-22T10:47:42.298Z,97037.94
2023-05-22T10:50:11.778Z,97037.59
2023-05-22T10:52:40.230Z,97032.03
2023-05-22T10:55:09.758Z,97044.44
2023-05-22T10:57:39.083Z,97033.50
2023-05-22T11:00:09.513Z,97027.31
2023-05-22T11:02:43.786Z,97023.66
2023-05-22T11:05:39.007Z,97015.06
2023-05-22T11:08:46.421Z,97014.13
2023-05-22T11:11:14.411Z,97010.13
2023-05-22T11:13:42.329Z,97014.31
2023-05-22T11:16:10.104Z,97013.66
2023-05-22T11:18:39.420Z,97021.34
2023-05-22T11:21:10.786Z,97014.69
2023-05-22T11:23:39.147Z,97016.38
2023-05-22T11:26:18.769Z,97010.03
2023-05-22T11:28:49.616Z,97008.78
2023-05-22T11:31:18.148Z,97001.91
2023-05-22T11:33:47.390Z,96996.78
2023-05-22T11:36:16.189Z,96993.28
2023-05-22T11:38:44.379Z,96994.06
2023-05-22T11:41:13.070Z,96987.00
2023-05-22T11:43:43.881Z,96983.47
2023-05-22T11:46:12.228Z,96982.56
2023-05-22T11:48:43.622Z,96979.50
2023-05-22T11:51:12.695Z,96977.88
2023-05-22T11:53:41.484Z,96974.91
2023-05-22T11:56:09.101Z,96979.78
2023-05-22T11:58:36.721Z,96972.75
2023-05-22T12:01:04.688Z,96977.59
2023-05-22T12:03:32.886Z,96971.97
2023-05-22T12:06:01.951Z,96974.91
2023-05-22T12:08:31.397Z,96965.50
2023-05-22T12:10:59.712Z,96961.38
2023-05-22T12:13:30.229Z,96960.09
2023-05-22T12:15:59.583Z,96964.84
2023-05-22T12:18:27.615Z,96958.41
2023-05-22T12:20:56.169Z,96958.59
2023-05-22T12:23:25.013Z,96950.91
2023-05-22T12:26:01.937Z,96952.25
2023-05-22T12:28:31.802Z,96954.91
2023-05-22T12:31:00.148Z,96948.38
2023-05-22T12:33:28.785Z,96945.94
2023-05-22T12:35:57.417Z,96944.63
2023-05-22T12:38:28.363Z,96941.06
2023-05-22T12:40:57.242Z,96937.91
2023-05-22T12:43:26.236Z,96936.38
2023-05-22T12:45:54.262Z,96930.44
2023-05-22T12:48:21.926Z,96929.59
2023-05-22T12:50:49.877Z,96937.38
2023-05-22T12:53:17.639Z,96937.50
2023-05-22T12:55:48.309Z,96940.03
2023-05-22T12:58:16.226Z,96939.28
2023-05-22T13:00:45.197Z,96939.75
2023-05-22T13:03:13.017Z,96940.50
2023-05-22T13:05:40.900Z,96924.81
2023-05-22T13:08:10.453Z,96930.75
2023-05-22T13:10:38.408Z,96929.66
2023-05-22T13:13:06.098Z,96920.72
2023-05-22T13:15:33.861Z,96924.56
2023-05-22T13:18:05.999Z,96924.25
2023-05-22T13:20:34.802Z,96921.94
2023-05-22T13:23:05.194Z,96921.84
2023-05-22T13:25:33.414Z,96918.66
2023-05-22T13:28:01.630Z,96910.75
2023-05-22T13:30:29.377Z,96910.44
2023-05-22T13:32:57.109Z,96909.88
2023-05-22T13:35:26.404Z,96900.00
2023-05-22T13:37:54.154Z,96900.06
2023-05-22T13:40:23.255Z,96893.44
2023-05-22T13:42:51.882Z,96906.31
2023-05-22T13:45:19.888Z,96893.59
2023-05-22T13:47:52.272Z,96895.91
2023-05-22T13:50:20.381Z,96892.38
2023-05-22T13:52:50.419Z,96894.28
2023-05-22T13:55:18.209Z,96891.59
2023-05-22T13:57:45.849Z,96896.97
2023-05-22T14:00:14.606Z,96892.13
2023-05-22T14:02:42.323Z,96890.44
2023-05-22T14:05:10.345Z,96902.25
2023-05-22T14:07:38.519Z,96909.31
2023-05-22T14:10:09.335Z,96891.50
2023-05-22T14:12:37.477Z,96886.63
2023-05-22T14:15:06.490Z,96894.06
2023-05-22T14:17:34.414Z,96882.94
2023-05-22T14:20:02.875Z,96873.78
2023-05-22T14:22:32.727Z,96871.72
2023-05-22T14:25:04.550Z,96864.25
2023-05-22T14:27:34.035Z,96858.34
2023-05-22T14:30:01.941Z,96850.94
2023-05-22T14:32:30.080Z,96844.91
2023-05-22T14:34:57.764Z,96849.94
2023-05-22T14:37:25.318Z,96841.78
2023-05-22T14:39:53.158Z,96843.59
2023-05-22T14:42:20.834Z,96844.31
2023-05-22T14:44:49.797Z,96849.84
2023-05-22T14:47:17.389Z,96859.09
2023-05-22T14:49:45.080Z,96854.16
2023-05-22T14:52:14.016Z,96862.31
2023-05-22T14:54:41.634Z,96858.16
2023-05-22T14:57:09.196Z,96861.41
2023-05-22T14:59:36.764Z,96853.94
2023-05-22T15:02:06.650Z,96851.31
2023-05-22T15:04:34.438Z,96861.28
2023-05-22T15:07:02.157Z,96859.81
2023-05-22T15:09:29.788Z,96866.47
2023-05-22T15:11:57.600Z,96857.34
2023-05-22T15:14:25.183Z,96857.69
2023-05-22T15:16:52.818Z,96866.16
2023-05-22T15:19:21.895Z,96852.25
2023-05-22T15:21:49.688Z,96849.53
2023-05-22T15:24:17.847Z,96863.56
2023-05-22T15:26:45.932Z,96867.63
2023-05-22T15:29:14.593Z,96868.19
2023-05-22T15:31:42.518Z,96868.13
2023-05-22T15:34:10.501Z,96864.38
2023-05-22T15:36:39.513Z,96865.97
2023-05-22T15:39:07.879Z,96859.13
2023-05-22T15:41:35.522Z,96861.22
2023-05-22T15:44:03.180Z,96852.91
2023-05-22T15:46:31.076Z,96850.53
2023-05-22T15:48:58.763Z,96858.31
2023-05-22T15:51:26.412Z,96851.94
2023-05-22T15:53:56.971Z,96848.66
2023-05-22T15:56:24.717Z,96847.00
2023-05-22T15:58:52.591Z,96847.06
2023-05-22T16:01:20.297Z,96845.63
2023-05-22T16:03:48.168Z,96859.88
2023-05-22T16:06:16.370Z,96858.63
2023-05-22T16:08:44.087Z,96853.38
2023-05-22T16:11:13.058Z,96863.38
2023-05-22T16:13:40.803Z,96861.38
2023-05-22T16:16:08.708Z,96860.78
2023-05-22T16:18:36.335Z,96869.03
2023-05-22T16:21:04.645Z,96861.97
2023-05-22T16:23:33.777Z,96866.31
2023-05-22T16:26:01.654Z,96873.56
2023-05-22T16:28:30.582Z,96883.63
2023-05-22T16:30:58.505Z,96889.75
2023-05-22T16:33:27.096Z,96883.41
2023-05-22T16:35:55.069Z,96895.91
2023-05-22T16:38:22.736Z,96896.28
2023-05-22T16:40:50.393Z,96899.41
2023-05-22T16:43:19.178Z,96909.75
2023-05-22T16:45:48.187Z,96900.34
2023-05-22T16:48:15.893Z,96887.44
2023-05-22T16:50:43.730Z,96902.34
2023-05-22T16:53:11.523Z,96914.50
2023-05-22T16:55:39.601Z,96949.25
2023-05-22T16:58:07.505Z,96966.97
2023-05-22T17:00:36.409Z,96956.91
2023-05-22T17:03:06.175Z,96977.66
2023-05-22T17:05:34.516Z,96962.34
2023-05-22T17:08:02.198Z,96961.63
2023-05-22T17:10:30.136Z,96961.63
2023-05-22T17:12:58.105Z,96955.34
2023-05-22T17:15:25.763Z,96944.31
2023-05-22T17:17:53.605Z,96939.75
2023-05-22T17:20:23.362Z,96944.66
2023-05-22T17:22:51.402Z,96944.28
2023-05-22T17:25:19.514Z,96960.91
2023-05-22T17:27:47.122Z,96970.00
2023-05-22T17:30:14.883Z,96969.44
2023-05-22T17:32:42.764Z,96982.13
2023-05-22T17:35:10.645Z,96984.53
2023-05-22T17:37:39.641Z,96988.72
2023-05-22T17:40:08.921Z,96988.75
2023-05-22T17:42:36.480Z,96997.53
2023-05-22T17:45:06.413Z,97010.28
2023-05-22T17:47:34.611Z,97019.06
2023-05-22T17:50:05.635Z,97023.78
2023-05-22T17:52:33.295Z,97037.97
2023-05-22T17:55:02.668Z,97033.22
2023-05-22T17:57:30.631Z,97026.59
2023-05-22T17:59:58.330Z,97025.69
2023-05-22T18:02:26.162Z,97024.47
2023-05-22T18:04:53.913Z,97020.78
2023-05-22T18:07:21.835Z,97016.84
2023-05-22T18:09:49.530Z,97016.25
2023-05-22T18:12:31.042Z,97014.63
2023-05-22T18:14:59.733Z,97030.72
2023-05-22T18:17:27.605Z,97031.47
2023-05-22T18:19:55.200Z,97031.91
2023-05-22T18:22:22.894Z,97032.66
2023-05-22T18:24:50.578Z,97043.22
2023-05-22T18:27:19.599Z,97034.00
2023-05-22T18:29:47.212Z,97030.75
2023-05-22T18:32:14.824Z,97031.47
2023-05-22T18:34:42.511Z,97022.38
2023-05-22T18:37:12.418Z,97016.44
2023-05-22T18:39:40.024Z,97016.31
2023-05-22T18:42:07.967Z,97017.81
2023-05-22T18:44:36.933Z,97020.22
2023-05-22T18:47:05.228Z,97020.88
2023-05-22T18:49:33.072Z,97012.66
2023-05-22T18:52:00.704Z,97009.84
2023-05-22T18:54:28.470Z,97008.34
2023-05-22T18:56:56.321Z,97008.88
2023-05-22T18:59:23.989Z,97013.44
2023-05-22T19:01:53.031Z,97014.56
2023-05-22T19:04:20.965Z,97001.38
2023-05-22T19:06:48.679Z,97010.72
2023-05-22T19:09:16.304Z,97000.31
2023-05-22T19:11:43.886Z,97001.78
2023-05-22T19:14:11.591Z,96999.84
2023-05-22T19:16:40.645Z,97013.66
2023-05-22T19:19:09.725Z,97016.53
2023-05-22T19:21:37.409Z,97019.41
2023-05-22T19:24:08.784Z,97022.09
2023-05-22T19:26:36.459Z,97015.28
2023-05-22T19:29:04.138Z,97016.13
2023-05-22T19:31:31.874Z,97015.06
2023-05-22T19:33:59.580Z,97018.78
2023-05-22T19:36:28.542Z,97022.81
2023-05-22T19:38:56.551Z,97014.28
2023-05-22T19:41:24.220Z,97016.03
2023-05-22T19:43:52.005Z,97023.06
2023-05-22T19:46:19.635Z,97017.88
2023-05-22T19:48:48.656Z,97017.69
2023-05-22T19:51:16.278Z,97026.38
2023-05-22T19:53:46.742Z,97017.13
2023-05-22T19:56:15.418Z,97020.25
2023-05-22T19:58:43.092Z,97023.09
2023-05-22T20:01:11.780Z,97022.25
2023-05-22T20:03:39.564Z,97028.75
2023-05-22T20:06:07.342Z,97041.75
2023-05-22T20:08:35.051Z,97058.00
2023-05-22T20:11:04.123Z,97061.28
2023-05-22T20:13:31.999Z,97081.22
2023-05-22T20:15:59.770Z,97080.66
2023-05-22T20:18:27.471Z,97075.63
2023-05-22T20:20:55.735Z,97084.22
2023-05-22T20:23:23.443Z,97081.44
2023-05-22T20:25:51.161Z,97083.66
2023-05-22T20:28:20.093Z,97082.34
2023-05-22T20:30:48.044Z,97087.31
2023-05-22T20:33:15.763Z,97081.38
2023-05-22T20:35:43.889Z,97084.38
2023-05-22T20:38:11.712Z,97083.00
2023-05-22T20:40:39.853Z,97089.19
2023-05-22T20:43:07.620Z,97086.59
2023-05-22T20:45:36.716Z,97092.41
2023-05-22T20:48:04.543Z,97104.13
2023-05-22T20:50:32.307Z,97112.53
2023-05-22T20:53:03.541Z,97106.63
2023-05-22T20:55:33.790Z,97098.66
2023-05-22T20:58:03.328Z,97105.00
2023-05-22T21:00:31.084Z,97108.84
2023-05-22T21:03:00.213Z,97116.69
2023-05-22T21:05:27.925Z,97118.91
2023-05-22T21:07:55.607Z,97133.09
2023-05-22T21:10:23.310Z,97130.75
2023-05-22T21:12:50.964Z,97126.34
2023-05-22T21:15:18.815Z,97141.06
2023-05-22T21:17:46.595Z,97130.28
2023-05-22T21:20:15.959Z,97133.59
2023-05-22T21:22:43.742Z,97130.19
2023-05-22T21:25:11.411Z,97130.63
2023-05-22T21:27:39.093Z,97132.34
2023-05-22T21:30:08.156Z,97133.97
2023-05-22T21:32:35.774Z,97139.88
2023-05-22T21:35:03.698Z,97137.31
2023-05-22T21:37:32.791Z,97142.91
2023-05-22T21:40:03.357Z,97148.56
2023-05-22T21:42:44.585Z,97150.00
2023-05-22T21:45:13.263Z,97142.22
2023-05-22T21:47:41.429Z,97143.75
2023-05-22T21:50:10.167Z,97137.66
2023-05-22T21:52:39.609Z,97141.00
2023-05-22T21:55:08.480Z,97137.03
2023-05-22T21:57:36.310Z,97135.59
2023-05-22T22:00:04.262Z,97130.03
2023-05-22T22:02:31.976Z,97141.13
2023-05-22T22:04:59.656Z,97138.88
2023-05-22T22:07:27.228Z,97137.06
2023-05-22T22:09:56.321Z,97141.38
2023-05-22T22:12:23.973Z,97137.50
2023-05-22T22:14:51.664Z,97142.69
2023-05-22T22:17:19.345Z,97130.28
2023-05-22T22:19:46.990Z,97130.84
2023-05-22T22:22:14.934Z,97134.44
2023-05-22T22:24:42.784Z,97139.53
2023-05-22T22:27:11.892Z,97133.91
2023-05-22T22:29:39.585Z,97143.09
2023-05-22T22:32:07.634Z,97139.97
2023-05-22T22:34:35.354Z,97134.22
2023-05-22T22:37:03.043Z,97142.06
2023-05-22T22:39:30.794Z,97156.06
2023-05-22T22:41:58.510Z,97157.31
2023-05-22T22:44:27.689Z,97158.75
2023-05-22T22:46:55.387Z,97160.78
2023-05-22T22:49:23.040Z,97166.31
2023-05-22T22:51:50.611Z,97172.88
2023-05-22T22:54:18.209Z,97171.47
2023-05-22T22:56:46.964Z,97162.72
2023-05-22T22:59:14.645Z,97165.09
2023-05-22T23:01:44.166Z,97157.66
2023-05-22T23:04:12.124Z,97163.56
2023-05-22T23:06:42.223Z,97171.41
2023-05-22T23:09:10.112Z,97170.63
2023-05-22T23:11:38.025Z,97166.06
2023-05-22T23:14:07.075Z,97165.91
2023-05-22T23:16:35.364Z,97170.66
2023-05-22T23:19:05.298Z,97173.84
2023-05-22T23:21:34.218Z,97178.06
2023-05-22T23:24:04.173Z,97188.53
2023-05-22T23:26:32.257Z,97187.44
2023-05-22T23:29:00.522Z,97180.22
2023-05-22T23:31:28.415Z,97193.75
2023-05-22T23:33:56.403Z,97196.91
2023-05-22T23:36:25.926Z,97188.63
2023-05-22T23:38:53.639Z,97192.22
2023-05-22T23:41:21.452Z,97177.69
2023-05-22T23:43:49.131Z,97174.78
2023-05-22T23:46:16.980Z,97168.69
2023-05-22T23:48:44.626Z,97177.75
2023-05-22T23:51:12.394Z,97168.16
2023-05-22T23:53:44.755Z,97170.94
2023-05-22T23:56:12.514Z,97187.84
2023-05-22T23:58:40.189Z,97184.41
